sensor_id;sensor_type;location;lat;lon;timestamp;pressure;altitude;pressure_sealevel;temperature;humidity
17525;BME280;40431;52.198;9.902;2022-07-29T00:01:17;100964.34;;;17.85;56.33
17525;BME280;40431;52.198;9.902;2022-07-29T00:03:45;100960.00;;;17.82;56.59
17525;BME280;40431;52.198;9.902;2022-07-29T00:06:11;100952.16;;;17.78;56.19
17525;BME280;40431;52.198;9.902;2022-07-29T00:08:38;100953.53;;;17.72;56.46
17525;BME280;40431;52.198;9.902;2022-07-29T00:11:04;100959.03;;;17.72;56.54
17525;BME280;40431;52.198;9.902;2022-07-29T00:13:31;100959.28;;;17.69;56.82
17525;BME280;40431;52.198;9.902;2022-07-29T00:15:57;100958.69;;;17.65;57.01
17525;BME280;40431;52.198;9.902;2022-07-29T00:18:23;100965.06;;;17.66;56.80
17525;BME280;40431;52.198;9.902;2022-07-29T00:20:51;100954.66;;;17.69;57.49
17525;BME280;40431;52.198;9.902;2022-07-29T00:23:17;100956.56;;;17.69;57.50
17525;BME280;40431;52.198;9.902;2022-07-29T00:25:44;100943.13;;;17.66;57.33
17525;BME280;40431;52.198;9.902;2022-07-29T00:28:10;100948.31;;;17.69;57.81
17525;BME280;40431;52.198;9.902;2022-07-29T00:30:36;100940.97;;;17.69;57.42
17525;BME280;40431;52.198;9.902;2022-07-29T00:33:03;100937.97;;;17.73;58.18
17525;BME280;40431;52.198;9.902;2022-07-29T00:35:29;100935.09;;;17.74;57.77
17525;BME280;40431;52.198;9.902;2022-07-29T00:38:12;100934.34;;;17.72;57.88
17525;BME280;40431;52.198;9.902;2022-07-29T00:40:41;100937.97;;;17.73;58.12
17525;BME280;40431;52.198;9.902;2022-07-29T00:43:08;100934.09;;;17.75;58.19
17525;BME280;40431;52.198;9.902;2022-07-29T00:45:34;100928.63;;;17.75;58.66
17525;BME280;40431;52.198;9.902;2022-07-29T00:48:01;100927.50;;;17.78;58.79
17525;BME280;40431;52.198;9.902;2022-07-29T00:50:29;100926.34;;;17.80;58.51
17525;BME280;40431;52.198;9.902;2022-07-29T00:52:56;100923.47;;;17.82;58.98
17525;BME280;40431;52.198;9.902;2022-07-29T00:55:23;100927.06;;;17.82;59.12
17525;BME280;40431;52.198;9.902;2022-07-29T00:57:51;100914.13;;;17.84;59.22
17525;BME280;40431;52.198;9.902;2022-07-29T01:00:20;100912.38;;;17.83;58.36
17525;BME280;40431;52.198;9.902;2022-07-29T01:02:48;100918.47;;;17.87;58.86
17525;BME280;40431;52.198;9.902;2022-07-29T01:05:16;100914.25;;;17.83;58.44
17525;BME280;40431;52.198;9.902;2022-07-29T01:07:44;100909.75;;;17.82;58.05
17525;BME280;40431;52.198;9.902;2022-07-29T01:10:13;100904.53;;;17.79;58.75
17525;BME280;40431;52.198;9.902;2022-07-29T01:12:43;100902.19;;;17.74;58.54
17525;BME280;40431;52.198;9.902;2022-07-29T01:15:10;100897.97;;;17.70;58.56
17525;BME280;40431;52.198;9.902;2022-07-29T01:17:42;100885.78;;;17.63;58.19
17525;BME280;40431;52.198;9.902;2022-07-29T01:20:14;100878.94;;;17.57;59.12
17525;BME280;40431;52.198;9.902;2022-07-29T01:23:08;100882.56;;;17.58;59.52
17525;BME280;40431;52.198;9.902;2022-07-29T01:26:04;100887.03;;;17.59;59.52
17525;BME280;40431;52.198;9.902;2022-07-29T01:31:36;100880.56;;;17.60;59.74
17525;BME280;40431;52.198;9.902;2022-07-29T01:34:07;100884.78;;;17.64;59.84
17525;BME280;40431;52.198;9.902;2022-07-29T01:36:37;100885.06;;;17.61;60.50
17525;BME280;40431;52.198;9.902;2022-07-29T01:39:10;100884.28;;;17.59;59.52
17525;BME280;40431;52.198;9.902;2022-07-29T01:41:48;100888.78;;;17.60;59.86
17525;BME280;40431;52.198;9.902;2022-07-29T01:44:20;100886.44;;;17.55;59.85
17525;BME280;40431;52.198;9.902;2022-07-29T01:46:52;100878.88;;;17.47;58.84
17525;BME280;40431;52.198;9.902;2022-07-29T01:49:22;100877.88;;;17.48;60.03
17525;BME280;40431;52.198;9.902;2022-07-29T01:51:51;100880.00;;;17.45;59.38
17525;BME280;40431;52.198;9.902;2022-07-29T01:54:22;100873.19;;;17.39;59.67
17525;BME280;40431;52.198;9.902;2022-07-29T01:56:53;100875.94;;;17.39;60.46
17525;BME280;40431;52.198;9.902;2022-07-29T01:59:23;100875.16;;;17.37;60.29
17525;BME280;40431;52.198;9.902;2022-07-29T02:01:53;100872.44;;;17.37;60.54
17525;BME280;40431;52.198;9.902;2022-07-29T02:04:20;100875.56;;;17.32;60.19
17525;BME280;40431;52.198;9.902;2022-07-29T02:06:49;100871.22;;;17.30;61.13
17525;BME280;40431;52.198;9.902;2022-07-29T02:09:17;100877.84;;;17.27;60.75
17525;BME280;40431;52.198;9.902;2022-07-29T02:11:49;100864.50;;;17.23;60.77
17525;BME280;40431;52.198;9.902;2022-07-29T02:14:18;100864.78;;;17.19;61.37
17525;BME280;40431;52.198;9.902;2022-07-29T02:16:47;100865.28;;;17.13;60.67
17525;BME280;40431;52.198;9.902;2022-07-29T02:19:17;100865.41;;;17.12;61.25
17525;BME280;40431;52.198;9.902;2022-07-29T02:21:44;100859.06;;;17.11;62.08
17525;BME280;40431;52.198;9.902;2022-07-29T02:24:12;100856.19;;;17.13;61.74
17525;BME280;40431;52.198;9.902;2022-07-29T02:26:41;100854.59;;;17.10;62.00
17525;BME280;40431;52.198;9.902;2022-07-29T02:29:09;100859.06;;;17.11;62.06
17525;BME280;40431;52.198;9.902;2022-07-29T02:31:39;100854.59;;;17.10;62.28
17525;BME280;40431;52.198;9.902;2022-07-29T02:34:09;100855.84;;;17.06;62.27
17525;BME280;40431;52.198;9.902;2022-07-29T02:36:36;100861.81;;;17.11;62.25
17525;BME280;40431;52.198;9.902;2022-07-29T02:39:04;100851.22;;;17.07;61.57
17525;BME280;40431;52.198;9.902;2022-07-29T02:41:36;100856.56;;;17.08;62.17
17525;BME280;40431;52.198;9.902;2022-07-29T02:44:08;100853.69;;;17.10;62.21
17525;BME280;40431;52.198;9.902;2022-07-29T02:46:36;100856.56;;;17.08;61.63
17525;BME280;40431;52.198;9.902;2022-07-29T02:49:09;100851.22;;;17.07;61.92
17525;BME280;40431;52.198;9.902;2022-07-29T02:51:41;100848.63;;;17.05;62.13
17525;BME280;40431;52.198;9.902;2022-07-29T02:54:10;100848.75;;;17.03;61.89
17525;BME280;40431;52.198;9.902;2022-07-29T02:56:38;100852.47;;;17.02;61.99
17525;BME280;40431;52.198;9.902;2022-07-29T02:59:09;100846.16;;;17.02;62.33
17525;BME280;40431;52.198;9.902;2022-07-29T03:01:39;100841.94;;;16.98;62.17
17525;BME280;40431;52.198;9.902;2022-07-29T03:04:09;100840.31;;;16.95;61.75
17525;BME280;40431;52.198;9.902;2022-07-29T03:06:38;100833.22;;;16.93;62.63
17525;BME280;40431;52.198;9.902;2022-07-29T03:09:06;100831.72;;;16.89;62.89
17525;BME280;40431;52.198;9.902;2022-07-29T03:11:34;100840.69;;;16.91;62.74
17525;BME280;40431;52.198;9.902;2022-07-29T03:14:01;100841.44;;;16.93;63.10
17525;BME280;40431;52.198;9.902;2022-07-29T03:16:28;100843.41;;;16.91;62.72
17525;BME280;40431;52.198;9.902;2022-07-29T03:18:55;100841.66;;;16.90;63.34
17525;BME280;40431;52.198;9.902;2022-07-29T03:21:23;100844.91;;;16.95;63.89
17525;BME280;40431;52.198;9.902;2022-07-29T03:23:49;100833.94;;;16.95;63.50
17525;BME280;40431;52.198;9.902;2022-07-29T03:26:16;100837.66;;;16.94;63.10
17525;BME280;40431;52.198;9.902;2022-07-29T03:28:42;100834.84;;;16.95;63.18
17525;BME280;40431;52.198;9.902;2022-07-29T03:31:09;100827.88;;;16.91;62.71
17525;BME280;40431;52.198;9.902;2022-07-29T03:33:35;100831.59;;;16.90;63.07
17525;BME280;40431;52.198;9.902;2022-07-29T03:36:02;100823.50;;;16.89;63.42
17525;BME280;40431;52.198;9.902;2022-07-29T03:38:33;100828.72;;;16.80;63.19
17525;BME280;40431;52.198;9.902;2022-07-29T03:41:04;100823.75;;;16.74;63.12
17525;BME280;40431;52.198;9.902;2022-07-29T03:43:34;100828.63;;;16.70;62.70
17525;BME280;40431;52.198;9.902;2022-07-29T03:46:03;100835.44;;;16.76;63.70
17525;BME280;40431;52.198;9.902;2022-07-29T03:48:33;100837.44;;;16.74;63.40
17525;BME280;40431;52.198;9.902;2022-07-29T03:51:00;100832.56;;;16.78;64.21
17525;BME280;40431;52.198;9.902;2022-07-29T03:53:27;100833.22;;;16.70;63.14
17525;BME280;40431;52.198;9.902;2022-07-29T03:55:59;100828.00;;;16.67;63.56
17525;BME280;40431;52.198;9.902;2022-07-29T03:58:27;100828.50;;;16.61;63.10
17525;BME280;40431;52.198;9.902;2022-07-29T04:00:56;100819.81;;;16.56;64.07
17525;BME280;40431;52.198;9.902;2022-07-29T04:03:23;100821.78;;;16.53;63.65
17525;BME280;40431;52.198;9.902;2022-07-29T04:06:00;100829.13;;;16.53;63.71
17525;BME280;40431;52.198;9.902;2022-07-29T04:08:27;100829.00;;;16.55;64.00
17525;BME280;40431;52.198;9.902;2022-07-29T04:10:53;100837.97;;;16.57;63.79
17525;BME280;40431;52.198;9.902;2022-07-29T04:13:21;100833.38;;;16.57;63.87
17525;BME280;40431;52.198;9.902;2022-07-29T04:15:48;100838.22;;;16.65;65.35
17525;BME280;40431;52.198;9.902;2022-07-29T04:18:14;100838.94;;;16.67;64.38
17525;BME280;40431;52.198;9.902;2022-07-29T04:20:40;100837.94;;;16.68;63.51
17525;BME280;40431;52.198;9.902;2022-07-29T04:23:07;100840.06;;;16.64;63.14
17525;BME280;40431;52.198;9.902;2022-07-29T04:25:37;100832.88;;;16.63;63.73
17525;BME280;40431;52.198;9.902;2022-07-29T04:28:03;100829.25;;;16.63;63.68
17525;BME280;40431;52.198;9.902;2022-07-29T04:30:32;100833.72;;;16.64;63.43
17525;BME280;40431;52.198;9.902;2022-07-29T04:32:58;100827.25;;;16.65;63.49
17525;BME280;40431;52.198;9.902;2022-07-29T04:35:26;100831.47;;;16.69;63.77
17525;BME280;40431;52.198;9.902;2022-07-29T04:37:52;100839.44;;;16.72;63.92
17525;BME280;40431;52.198;9.902;2022-07-29T04:40:19;100841.19;;;16.73;63.35
17525;BME280;40431;52.198;9.902;2022-07-29T04:42:45;100835.72;;;16.73;63.52
17525;BME280;40431;52.198;9.902;2022-07-29T04:45:12;100827.75;;;16.70;62.87
17525;BME280;40431;52.198;9.902;2022-07-29T04:47:40;100837.09;;;16.67;63.26
17525;BME280;40431;52.198;9.902;2022-07-29T04:50:08;100842.31;;;16.70;63.15
17525;BME280;40431;52.198;9.902;2022-07-29T04:52:35;100836.81;;;16.70;62.96
17525;BME280;40431;52.198;9.902;2022-07-29T04:55:02;100842.94;;;16.74;63.67
17525;BME280;40431;52.198;9.902;2022-07-29T04:57:29;100839.78;;;16.79;63.58
17525;BME280;40431;52.198;9.902;2022-07-29T04:59:55;100845.91;;;16.82;63.65
17525;BME280;40431;52.198;9.902;2022-07-29T05:02:22;100852.84;;;16.86;63.58
17525;BME280;40431;52.198;9.902;2022-07-29T05:04:49;100851.88;;;16.88;62.42
17525;BME280;40431;52.198;9.902;2022-07-29T05:07:16;100847.38;;;16.86;62.46
17525;BME280;40431;52.198;9.902;2022-07-29T05:09:42;100855.59;;;16.86;62.77
17525;BME280;40431;52.198;9.902;2022-07-29T05:12:08;100838.53;;;16.83;63.15
17525;BME280;40431;52.198;9.902;2022-07-29T05:14:35;100848.50;;;16.84;63.32
17525;BME280;40431;52.198;9.902;2022-07-29T05:17:02;100838.31;;;16.86;63.09
17525;BME280;40431;52.198;9.902;2022-07-29T05:19:28;100836.44;;;16.86;63.28
17525;BME280;40431;52.198;9.902;2022-07-29T05:21:56;100844.31;;;16.91;63.93
17525;BME280;40431;52.198;9.902;2022-07-29T05:24:22;100841.44;;;16.93;63.57
17525;BME280;40431;52.198;9.902;2022-07-29T05:26:49;100848.88;;;17.02;63.84
17525;BME280;40431;52.198;9.902;2022-07-29T05:29:15;100842.72;;;17.10;63.14
17525;BME280;40431;52.198;9.902;2022-07-29T05:31:41;100842.09;;;17.17;63.10
17525;BME280;40431;52.198;9.902;2022-07-29T05:34:08;100847.81;;;17.26;62.82
17525;BME280;40431;52.198;9.902;2022-07-29T05:36:34;100835.69;;;17.28;62.40
17525;BME280;40431;52.198;9.902;2022-07-29T05:39:02;100831.97;;;17.29;62.46
17525;BME280;40431;52.198;9.902;2022-07-29T05:41:31;100825.50;;;17.30;62.32
17525;BME280;40431;52.198;9.902;2022-07-29T05:43:57;100821.63;;;17.33;61.72
17525;BME280;40431;52.198;9.902;2022-07-29T05:46:24;100827.72;;;17.36;62.14
17525;BME280;40431;52.198;9.902;2022-07-29T05:48:50;100817.22;;;17.42;61.89
17525;BME280;40431;52.198;9.902;2022-07-29T05:51:17;100813.00;;;17.38;61.27
17525;BME280;40431;52.198;9.902;2022-07-29T05:53:43;100807.22;;;17.19;61.44
17525;BME280;40431;52.198;9.902;2022-07-29T05:56:11;100805.28;;;17.10;61.96
17525;BME280;40431;52.198;9.902;2022-07-29T05:58:37;100809.00;;;17.09;62.68
17525;BME280;40431;52.198;9.902;2022-07-29T06:01:04;100821.44;;;17.13;62.75
17525;BME280;40431;52.198;9.902;2022-07-29T06:03:30;100825.91;;;17.26;62.49
17525;BME280;40431;52.198;9.902;2022-07-29T06:05:57;100829.97;;;17.31;62.70
17525;BME280;40431;52.198;9.902;2022-07-29T06:08:23;100830.84;;;17.32;61.40
17525;BME280;40431;52.198;9.902;2022-07-29T06:10:49;100822.75;;;17.30;62.48
17525;BME280;40431;52.198;9.902;2022-07-29T06:13:17;100830.31;;;17.38;62.84
17525;BME280;40431;52.198;9.902;2022-07-29T06:15:44;100821.75;;;17.31;61.42
17525;BME280;40431;52.198;9.902;2022-07-29T06:18:11;100812.91;;;17.28;61.78
17525;BME280;40431;52.198;9.902;2022-07-29T06:20:38;100822.88;;;17.29;62.62
17525;BME280;40431;52.198;9.902;2022-07-29T06:23:04;100827.03;;;17.44;63.43
17525;BME280;40431;52.198;9.902;2022-07-29T06:25:31;100825.00;;;17.58;61.84
17525;BME280;40431;52.198;9.902;2022-07-29T06:28:00;100823.66;;;17.73;61.71
17525;BME280;40431;52.198;9.902;2022-07-29T06:30:27;100822.38;;;17.77;60.81
17525;BME280;40431;52.198;9.902;2022-07-29T06:32:54;100814.75;;;17.81;60.59
17525;BME280;40431;52.198;9.902;2022-07-29T06:35:21;100817.09;;;17.85;60.73
17525;BME280;40431;52.198;9.902;2022-07-29T06:37:47;100822.03;;;17.92;60.83
17525;BME280;40431;52.198;9.902;2022-07-29T06:40:13;100813.69;;;17.93;60.68
17525;BME280;40431;52.198;9.902;2022-07-29T06:42:54;100815.91;;;17.99;60.79
17525;BME280;40431;52.198;9.902;2022-07-29T06:45:20;100813.50;;;18.06;60.65
17525;BME280;40431;52.198;9.902;2022-07-29T06:47:48;100821.66;;;18.17;60.84
17525;BME280;40431;52.198;9.902;2022-07-29T06:50:15;100819.81;;;18.28;60.90
17525;BME280;40431;52.198;9.902;2022-07-29T06:52:41;100818.25;;;18.35;60.43
17525;BME280;40431;52.198;9.902;2022-07-29T06:55:08;100807.31;;;18.45;60.35
17525;BME280;40431;52.198;9.902;2022-07-29T06:57:35;100800.69;;;18.47;60.06
17525;BME280;40431;52.198;9.902;2022-07-29T07:00:01;100794.72;;;18.42;59.61
17525;BME280;40431;52.198;9.902;2022-07-29T07:02:30;100794.28;;;18.37;60.38
17525;BME280;40431;52.198;9.902;2022-07-29T07:04:58;100789.53;;;18.39;60.38
17525;BME280;40431;52.198;9.902;2022-07-29T07:07:24;100795.16;;;18.38;59.62
17525;BME280;40431;52.198;9.902;2022-07-29T07:09:51;100784.56;;;18.33;60.30
17525;BME280;40431;52.198;9.902;2022-07-29T07:12:17;100783.88;;;18.31;60.08
17525;BME280;40431;52.198;9.902;2022-07-29T07:14:43;100793.88;;;18.42;61.00
17525;BME280;40431;52.198;9.902;2022-07-29T07:17:10;100793.19;;;18.49;60.14
17525;BME280;40431;52.198;9.902;2022-07-29T07:19:36;100791.31;;;18.60;60.06
17525;BME280;40431;52.198;9.902;2022-07-29T07:22:04;100786.00;;;18.68;59.21
17525;BME280;40431;52.198;9.902;2022-07-29T07:24:30;100783.69;;;18.73;59.05
17525;BME280;40431;52.198;9.902;2022-07-29T07:26:57;100790.66;;;18.87;58.66
17525;BME280;40431;52.198;9.902;2022-07-29T07:29:23;100782.56;;;18.85;58.48
17525;BME280;40431;52.198;9.902;2022-07-29T07:31:50;100791.28;;;18.91;58.20
17525;BME280;40431;52.198;9.902;2022-07-29T07:34:16;100791.00;;;18.94;58.82
17525;BME280;40431;52.198;9.902;2022-07-29T07:36:42;100795.47;;;19.05;58.86
17525;BME280;40431;52.198;9.902;2022-07-29T07:39:10;100800.56;;;19.19;58.50
17525;BME280;40431;52.198;9.902;2022-07-29T07:41:37;100801.44;;;19.29;58.18
17525;BME280;40431;52.198;9.902;2022-07-29T07:44:03;100800.28;;;19.42;57.22
17525;BME280;40431;52.198;9.902;2022-07-29T07:46:30;100793.91;;;19.41;57.45
17525;BME280;40431;52.198;9.902;2022-07-29T07:48:56;100795.63;;;19.52;57.44
17525;BME280;40431;52.198;9.902;2022-07-29T07:51:23;100786.06;;;19.66;57.02
17525;BME280;40431;52.198;9.902;2022-07-29T07:53:50;100777.06;;;19.83;55.93
17525;BME280;40431;52.198;9.902;2022-07-29T07:56:18;100768.22;;;19.80;55.25
17525;BME280;40431;52.198;9.902;2022-07-29T07:58:44;100774.31;;;19.83;56.55
17525;BME280;40431;52.198;9.902;2022-07-29T08:01:10;100776.59;;;19.98;55.44
17525;BME280;40431;52.198;9.902;2022-07-29T08:03:37;100780.75;;;20.12;55.77
17525;BME280;40431;52.198;9.902;2022-07-29T08:06:04;100768.38;;;20.26;55.13
17525;BME280;40431;52.198;9.902;2022-07-29T08:08:31;100778.03;;;20.40;54.38
17525;BME280;40431;52.198;9.902;2022-07-29T08:10:57;100774.81;;;20.44;54.86
17525;BME280;40431;52.198;9.902;2022-07-29T08:13:26;100768.97;;;20.47;54.19
17525;BME280;40431;52.198;9.902;2022-07-29T08:15:53;100759.72;;;20.48;54.19
17525;BME280;40431;52.198;9.902;2022-07-29T08:18:24;100758.13;;;20.46;54.08
17525;BME280;40431;52.198;9.902;2022-07-29T08:20:50;100763.19;;;20.50;54.64
17525;BME280;40431;52.198;9.902;2022-07-29T08:23:17;100763.88;;;20.52;54.69
17525;BME280;40431;52.198;9.902;2022-07-29T08:25:44;100765.78;;;20.52;54.44
17525;BME280;40431;52.198;9.902;2022-07-29T08:28:11;100767.06;;;20.58;55.05
17525;BME280;40431;52.198;9.902;2022-07-29T08:30:38;100770.53;;;20.60;54.51
17525;BME280;40431;52.198;9.902;2022-07-29T08:33:05;100771.22;;;20.62;54.16
17525;BME280;40431;52.198;9.902;2022-07-29T08:35:31;100770.34;;;20.71;53.67
17525;BME280;40431;52.198;9.902;2022-07-29T08:37:58;100779.22;;;20.65;54.08
17525;BME280;40431;52.198;9.902;2022-07-29T08:40:24;100774.38;;;20.67;53.65
17525;BME280;40431;52.198;9.902;2022-07-29T08:42:51;100770.63;;;20.68;54.07
17525;BME280;40431;52.198;9.902;2022-07-29T08:45:17;100768.31;;;20.73;53.64
17525;BME280;40431;52.198;9.902;2022-07-29T08:47:45;100773.34;;;20.78;53.73
17525;BME280;40431;52.198;9.902;2022-07-29T08:50:12;100775.00;;;20.89;53.82
17525;BME280;40431;52.198;9.902;2022-07-29T08:52:40;100777.88;;;20.97;53.76
17525;BME280;40431;52.198;9.902;2022-07-29T08:55:09;100773.69;;;21.11;53.36
17525;BME280;40431;52.198;9.902;2022-07-29T08:57:38;100774.31;;;21.23;52.57
17525;BME280;40431;52.198;9.902;2022-07-29T09:00:06;100776.28;;;21.30;52.35
17525;BME280;40431;52.198;9.902;2022-07-29T09:02:40;100771.69;;;21.39;53.01
17525;BME280;40431;52.198;9.902;2022-07-29T09:05:09;100778.97;;;21.58;53.07
17525;BME280;40431;52.198;9.902;2022-07-29T09:07:35;100775.53;;;21.82;52.66
17525;BME280;40431;52.198;9.902;2022-07-29T09:10:04;100772.53;;;22.02;51.78
17525;BME280;40431;52.198;9.902;2022-07-29T09:12:31;100766.56;;;22.15;51.25
17525;BME280;40431;52.198;9.902;2022-07-29T09:14:57;100760.78;;;22.34;49.93
17525;BME280;40431;52.198;9.902;2022-07-29T09:17:39;100756.59;;;22.48;50.32
17525;BME280;40431;52.198;9.902;2022-07-29T09:20:10;100755.06;;;22.62;49.26
17525;BME280;40431;52.198;9.902;2022-07-29T09:22:37;100746.75;;;22.54;49.24
17525;BME280;40431;52.198;9.902;2022-07-29T09:25:04;100739.47;;;22.45;49.34
17525;BME280;40431;52.198;9.902;2022-07-29T09:27:30;100739.31;;;22.20;50.10
17525;BME280;40431;52.198;9.902;2022-07-29T09:29:58;100751.25;;;22.21;49.74
17525;BME280;40431;52.198;9.902;2022-07-29T09:32:25;100753.69;;;22.32;50.57
17525;BME280;40431;52.198;9.902;2022-07-29T09:35:14;100758.63;;;22.46;49.83
17525;BME280;40431;52.198;9.902;2022-07-29T09:37:41;100749.69;;;22.52;49.39
17525;BME280;40431;52.198;9.902;2022-07-29T09:40:11;100746.56;;;22.56;48.95
17525;BME280;40431;52.198;9.902;2022-07-29T09:42:39;100750.44;;;22.71;49.34
17525;BME280;40431;52.198;9.902;2022-07-29T09:45:06;100745.97;;;22.87;48.83
17525;BME280;40431;52.198;9.902;2022-07-29T09:47:44;100742.00;;;22.89;48.93
17525;BME280;40431;52.198;9.902;2022-07-29T09:50:15;100734.22;;;23.01;48.85
17525;BME280;40431;52.198;9.902;2022-07-29T09:52:46;100742.19;;;22.96;48.51
17525;BME280;40431;52.198;9.902;2022-07-29T09:55:13;100730.78;;;22.99;49.10
17525;BME280;40431;52.198;9.902;2022-07-29T09:57:40;100730.78;;;23.07;48.17
17525;BME280;40431;52.198;9.902;2022-07-29T10:00:09;100729.09;;;23.14;47.61
17525;BME280;40431;52.198;9.902;2022-07-29T10:02:37;100724.72;;;23.12;47.96
17525;BME280;40431;52.198;9.902;2022-07-29T10:05:06;100725.63;;;23.12;47.81
17525;BME280;40431;52.198;9.902;2022-07-29T10:07:47;100729.78;;;23.16;48.16
17525;BME280;40431;52.198;9.902;2022-07-29T10:10:22;100723.72;;;23.29;48.11
17525;BME280;40431;52.198;9.902;2022-07-29T10:12:51;100718.41;;;23.36;48.23
17525;BME280;40431;52.198;9.902;2022-07-29T10:15:18;100719.41;;;23.51;48.17
17525;BME280;40431;52.198;9.902;2022-07-29T10:17:45;100713.69;;;23.70;47.49
17525;BME280;40431;52.198;9.902;2022-07-29T10:20:11;100712.94;;;23.76;47.30
17525;BME280;40431;52.198;9.902;2022-07-29T10:22:38;100721.44;;;23.91;47.69
17525;BME280;40431;52.198;9.902;2022-07-29T10:25:07;100720.69;;;24.13;46.71
17525;BME280;40431;52.198;9.902;2022-07-29T10:27:34;100719.66;;;24.06;46.65
17525;BME280;40431;52.198;9.902;2022-07-29T10:30:01;100711.69;;;24.11;46.58
17525;BME280;40431;52.198;9.902;2022-07-29T10:32:37;100711.31;;;24.23;46.73
17525;BME280;40431;52.198;9.902;2022-07-29T10:35:17;100713.00;;;24.32;45.91
17525;BME280;40431;52.198;9.902;2022-07-29T10:38:00;100718.16;;;24.35;45.76
17525;BME280;40431;52.198;9.902;2022-07-29T10:40:38;100713.47;;;24.35;46.01
17525;BME280;40431;52.198;9.902;2022-07-29T10:43:25;100708.56;;;24.46;46.54
17525;BME280;40431;52.198;9.902;2022-07-29T10:45:56;100712.66;;;24.58;45.92
17525;BME280;40431;52.198;9.902;2022-07-29T10:48:23;100706.63;;;24.55;45.86
17525;BME280;40431;52.198;9.902;2022-07-29T10:50:55;100710.97;;;24.57;45.86
17525;BME280;40431;52.198;9.902;2022-07-29T10:53:22;100707.72;;;24.45;45.85
17525;BME280;40431;52.198;9.902;2022-07-29T10:55:50;100706.00;;;24.44;45.93
17525;BME280;40431;52.198;9.902;2022-07-29T10:58:19;100704.69;;;24.32;46.56
17525;BME280;40431;52.198;9.902;2022-07-29T11:00:51;100709.84;;;24.35;46.29
17525;BME280;40431;52.198;9.902;2022-07-29T11:03:45;100705.66;;;24.39;46.11
17525;BME280;40431;52.198;9.902;2022-07-29T11:06:17;100706.00;;;24.44;45.97
17525;BME280;40431;52.198;9.902;2022-07-29T11:08:44;100708.72;;;24.52;46.29
17525;BME280;40431;52.198;9.902;2022-07-29T11:11:32;100704.91;;;24.54;46.08
17525;BME280;40431;52.198;9.902;2022-07-29T11:13:59;100702.97;;;24.54;46.23
17525;BME280;40431;52.198;9.902;2022-07-29T11:16:59;100705.56;;;24.56;46.51
17525;BME280;40431;52.198;9.902;2022-07-29T11:19:27;100705.88;;;24.61;46.64
17525;BME280;40431;52.198;9.902;2022-07-29T11:21:54;100714.94;;;24.63;46.49
17525;BME280;40431;52.198;9.902;2022-07-29T11:24:22;100715.06;;;24.70;46.76
17525;BME280;40431;52.198;9.902;2022-07-29T11:27:18;100705.56;;;24.56;46.03
17525;BME280;40431;52.198;9.902;2022-07-29T11:29:53;100708.72;;;24.52;46.30
17525;BME280;40431;52.198;9.902;2022-07-29T11:32:33;100706.31;;;24.49;45.88
17525;BME280;40431;52.198;9.902;2022-07-29T11:35:13;100705.28;;;24.50;46.52
17525;BME280;40431;52.198;9.902;2022-07-29T11:37:42;100707.50;;;24.55;46.56
17525;BME280;40431;52.198;9.902;2022-07-29T11:40:14;100709.72;;;24.60;46.17
17525;BME280;40431;52.198;9.902;2022-07-29T11:42:47;100703.00;;;24.62;46.70
17525;BME280;40431;52.198;9.902;2022-07-29T11:45:18;100697.44;;;24.62;46.14
17525;BME280;40431;52.198;9.902;2022-07-29T11:47:51;100697.75;;;24.67;46.33
17525;BME280;40431;52.198;9.902;2022-07-29T11:50:30;100691.66;;;24.72;46.35
17525;BME280;40431;52.198;9.902;2022-07-29T11:52:57;100702.38;;;24.75;45.75
17525;BME280;40431;52.198;9.902;2022-07-29T11:55:25;100702.50;;;24.82;46.25
17525;BME280;40431;52.198;9.902;2022-07-29T11:57:54;100703.50;;;24.89;45.67
17525;BME280;40431;52.198;9.902;2022-07-29T12:00:24;100697.78;;;24.91;45.85
17525;BME280;40431;52.198;9.902;2022-07-29T12:02:51;100696.09;;;24.81;45.31
17525;BME280;40431;52.198;9.902;2022-07-29T12:05:18;100698.75;;;24.75;45.58
17525;BME280;40431;52.198;9.902;2022-07-29T12:07:46;100698.88;;;24.81;45.98
17525;BME280;40431;52.198;9.902;2022-07-29T12:10:13;100695.50;;;24.94;46.80
17525;BME280;40431;52.198;9.902;2022-07-29T12:12:40;100690.72;;;25.03;45.11
17525;BME280;40431;52.198;9.902;2022-07-29T12:15:15;100697.94;;;25.12;45.58
17525;BME280;40431;52.198;9.902;2022-07-29T12:17:43;100697.13;;;25.27;45.66
17525;BME280;40431;52.198;9.902;2022-07-29T12:20:10;100695.34;;;25.34;45.22
17525;BME280;40431;52.198;9.902;2022-07-29T12:22:39;100694.91;;;25.45;45.05
17525;BME280;40431;52.198;9.902;2022-07-29T12:25:07;100690.22;;;25.46;45.15
17525;BME280;40431;52.198;9.902;2022-07-29T12:27:34;100688.22;;;25.40;44.19
17525;BME280;40431;52.198;9.902;2022-07-29T12:30:05;100686.56;;;25.22;44.24
17525;BME280;40431;52.198;9.902;2022-07-29T12:32:34;100686.88;;;25.27;44.42
17525;BME280;40431;52.198;9.902;2022-07-29T12:35:06;100695.31;;;25.42;45.12
17525;BME280;40431;52.198;9.902;2022-07-29T12:37:33;100687.19;;;25.56;44.73
17525;BME280;40431;52.198;9.902;2022-07-29T12:40:01;100684.13;;;25.65;44.72
17525;BME280;40431;52.198;9.902;2022-07-29T12:42:27;100692.16;;;25.75;44.23
17525;BME280;40431;52.198;9.902;2022-07-29T12:44:54;100683.94;;;25.67;45.04
17525;BME280;40431;52.198;9.902;2022-07-29T12:47:20;100682.78;;;25.76;43.90
17525;BME280;40431;52.198;9.902;2022-07-29T12:49:49;100678.97;;;25.62;44.11
17525;BME280;40431;52.198;9.902;2022-07-29T12:52:23;100682.59;;;25.63;43.87
17525;BME280;40431;52.198;9.902;2022-07-29T12:54:49;100674.25;;;25.63;44.26
17525;BME280;40431;52.198;9.902;2022-07-29T12:57:16;100677.41;;;25.60;44.28
17525;BME280;40431;52.198;9.902;2022-07-29T12:59:42;100674.16;;;25.71;44.72
17525;BME280;40431;52.198;9.902;2022-07-29T13:02:20;100680.00;;;25.91;44.89